createdAt,value
2017-05-14T00:01:39.345Z,14.82
2017-05-14T00:04:08.390Z,13.56
2017-05-14T00:06:37.450Z,13.66
2017-05-14T00:09:06.513Z,14.00
2017-05-14T00:11:36.340Z,13.52
2017-05-14T00:14:05.390Z,14.18
2017-05-14T00:16:34.480Z,13.40
2017-05-14T00:19:03.534Z,16.76
2017-05-14T00:21:32.593Z,13.84
2017-05-14T00:24:01.661Z,13.98
2017-05-14T00:26:30.725Z,13.24
2017-05-14T00:28:59.784Z,12.96
2017-05-14T00:31:30.049Z,17.04
2017-05-14T00:33:59.130Z,13.58
2017-05-14T00:36:28.909Z,13.12
2017-05-14T00:38:58.713Z,13.78
2017-05-14T00:41:27.782Z,15.26
2017-05-14T00:43:56.851Z,13.52
2017-05-14T00:46:25.898Z,14.28
2017-05-14T00:48:54.942Z,12.60
2017-05-14T00:51:24.022Z,13.26
2017-05-14T00:53:53.794Z,13.42
2017-05-14T00:56:22.878Z,12.54
2017-05-14T00:58:51.928Z,14.04
2017-05-14T01:01:21.006Z,13.50
2017-05-14T01:03:50.794Z,14.34
2017-05-14T01:06:19.882Z,13.64
2017-05-14T01:08:48.918Z,12.34
2017-05-14T01:11:18.075Z,13.52
2017-05-14T01:13:47.116Z,15.38
2017-05-14T01:16:16.161Z,16.84
2017-05-14T01:18:45.313Z,14.24
2017-05-14T01:21:14.350Z,16.52
2017-05-14T01:23:43.415Z,15.76
2017-05-14T01:26:12.470Z,15.90
2017-05-14T01:28:41.538Z,16.42
2017-05-14T01:31:10.578Z,16.32
2017-05-14T01:33:39.634Z,16.10
2017-05-14T01:36:09.421Z,17.94
2017-05-14T01:38:38.483Z,19.52
2017-05-14T01:41:07.523Z,15.66
2017-05-14T01:43:36.586Z,17.80
2017-05-14T01:46:05.662Z,17.12
2017-05-14T01:48:34.721Z,16.98
2017-05-14T01:51:04.517Z,16.76
2017-05-14T01:53:33.577Z,16.20
2017-05-14T01:56:02.636Z,15.28
2017-05-14T01:58:31.690Z,18.62
2017-05-14T02:01:00.734Z,17.40
2017-05-14T02:03:29.793Z,16.32
2017-05-14T02:05:59.608Z,17.92
2017-05-14T02:08:29.413Z,16.10
2017-05-14T02:10:58.514Z,17.16
2017-05-14T02:13:28.293Z,16.36
2017-05-14T02:15:57.339Z,16.70
2017-05-14T02:18:27.133Z,16.98
2017-05-14T02:20:56.923Z,16.92
2017-05-14T02:23:25.973Z,18.12
2017-05-14T02:25:55.020Z,17.04
2017-05-14T02:28:24.085Z,15.80
2017-05-14T02:30:53.131Z,16.48
2017-05-14T02:33:22.934Z,16.68
2017-05-14T02:35:52.731Z,15.92
2017-05-14T02:38:21.805Z,15.86
2017-05-14T02:40:50.846Z,15.86
2017-05-14T02:43:20.621Z,18.26
2017-05-14T02:45:49.689Z,15.30
2017-05-14T02:48:18.737Z,15.24
2017-05-14T02:50:48.538Z,18.36
2017-05-14T02:53:17.746Z,16.44
2017-05-14T02:55:47.547Z,16.12
2017-05-14T02:58:16.613Z,15.12
2017-05-14T03:00:45.678Z,16.44
2017-05-14T03:03:14.725Z,16.54
2017-05-14T03:05:43.802Z,16.50
2017-05-14T03:08:12.849Z,15.52
2017-05-14T03:10:41.927Z,15.80
2017-05-14T03:13:11.018Z,19.66
2017-05-14T03:15:40.796Z,20.40
2017-05-14T03:18:09.862Z,18.68
2017-05-14T03:20:38.927Z,19.90
2017-05-14T03:23:08.017Z,17.84
2017-05-14T03:25:37.798Z,20.14
2017-05-14T03:28:06.864Z,20.22
2017-05-14T03:30:35.910Z,19.48
2017-05-14T03:33:05.721Z,20.52
2017-05-14T03:35:35.507Z,22.26
2017-05-14T03:38:04.577Z,23.16
2017-05-14T03:40:33.657Z,22.66
2017-05-14T03:43:02.697Z,21.40
2017-05-14T03:45:31.762Z,22.94
2017-05-14T03:48:00.812Z,23.60
2017-05-14T03:50:30.603Z,22.32
2017-05-14T03:52:59.640Z,25.20
2017-05-14T03:55:28.697Z,21.66
2017-05-14T03:57:57.749Z,20.96
2017-05-14T04:00:26.848Z,21.86
2017-05-14T04:02:55.895Z,22.32
2017-05-14T04:05:25.707Z,21.82
2017-05-14T04:07:55.480Z,20.34
2017-05-14T04:10:24.533Z,22.12
2017-05-14T04:12:53.593Z,20.68
2017-05-14T04:15:22.701Z,20.10
2017-05-14T04:17:51.774Z,21.98
2017-05-14T04:20:20.822Z,19.22
2017-05-14T04:22:49.994Z,20.44
2017-05-14T04:25:19.765Z,20.46
2017-05-14T04:27:48.821Z,22.46
2017-05-14T04:30:17.892Z,21.32
2017-05-14T04:32:46.941Z,20.08
2017-05-14T04:35:15.985Z,19.62
2017-05-14T04:37:45.766Z,19.28
2017-05-14T04:40:14.825Z,19.28
2017-05-14T04:42:43.864Z,24.12
2017-05-14T04:45:12.968Z,20.28
2017-05-14T04:47:42.797Z,20.04
2017-05-14T04:50:12.657Z,21.86
2017-05-14T04:52:41.716Z,22.84
2017-05-14T04:55:10.777Z,24.02
2017-05-14T04:57:40.574Z,20.12
2017-05-14T05:00:09.631Z,19.40
2017-05-14T05:02:38.674Z,22.82
2017-05-14T05:05:08.461Z,21.02
2017-05-14T05:07:37.517Z,21.94
2017-05-14T05:10:06.557Z,20.80
2017-05-14T05:12:35.614Z,21.42
2017-05-14T05:15:04.679Z,22.80
2017-05-14T05:17:33.736Z,20.56
2017-05-14T05:20:02.773Z,22.28
2017-05-14T05:22:31.845Z,20.40
2017-05-14T05:25:00.886Z,21.98
2017-05-14T05:27:29.944Z,22.70
2017-05-14T05:29:59.021Z,18.82
2017-05-14T05:32:28.119Z,22.62
2017-05-14T05:34:57.165Z,20.28
2017-05-14T05:37:26.251Z,22.50
2017-05-14T05:39:55.336Z,20.32
2017-05-14T05:42:24.374Z,17.78
2017-05-14T05:44:53.489Z,18.86
2017-05-14T05:47:23.356Z,18.70
2017-05-14T05:49:52.425Z,17.34
2017-05-14T05:52:21.639Z,16.28
2017-05-14T05:54:50.714Z,16.30
2017-05-14T05:57:19.831Z,17.04
2017-05-14T05:59:48.870Z,17.46
2017-05-14T06:02:18.649Z,18.80
2017-05-14T06:04:47.721Z,17.50
2017-05-14T06:07:16.798Z,14.76
2017-05-14T06:09:46.607Z,15.84
2017-05-14T06:12:15.766Z,16.20
2017-05-14T06:14:44.872Z,16.60
2017-05-14T06:17:13.898Z,17.08
2017-05-14T06:19:43.681Z,16.60
2017-05-14T06:22:12.733Z,15.78
2017-05-14T06:24:41.797Z,14.82
2017-05-14T06:27:11.848Z,14.80
2017-05-14T06:29:40.913Z,15.40
2017-05-14T06:32:10.691Z,15.08
2017-05-14T06:34:39.804Z,17.80
2017-05-14T06:37:09.698Z,14.32
2017-05-14T06:39:38.728Z,13.74
2017-05-14T06:42:07.909Z,14.48
2017-05-14T06:44:36.951Z,12.42
2017-05-14T06:47:06.017Z,15.16
2017-05-14T06:49:35.081Z,19.32
2017-05-14T06:52:04.911Z,14.82
2017-05-14T06:54:33.948Z,13.32
2017-05-14T06:57:03.000Z,14.26
2017-05-14T06:59:32.069Z,13.98
2017-05-14T07:02:01.109Z,13.78
2017-05-14T07:04:30.165Z,13.02
2017-05-14T07:06:59.965Z,12.44
2017-05-14T07:09:29.018Z,25.78
2017-05-14T07:11:58.068Z,11.68
2017-05-14T07:14:27.118Z,11.52
2017-05-14T07:16:56.162Z,12.42
2017-05-14T07:19:25.206Z,13.68
2017-05-14T07:21:54.253Z,11.94
2017-05-14T07:24:23.316Z,11.70
2017-05-14T07:26:52.375Z,10.60
2017-05-14T07:29:21.412Z,11.18
2017-05-14T07:31:50.523Z,9.66
2017-05-14T07:34:19.565Z,9.80
2017-05-14T07:36:48.614Z,8.30
2017-05-14T07:39:18.388Z,7.90
2017-05-14T07:41:47.433Z,7.70
2017-05-14T07:44:17.205Z,8.34
2017-05-14T07:46:46.330Z,7.60
2017-05-14T07:49:15.369Z,9.06
2017-05-14T07:51:44.424Z,7.40
2017-05-14T07:54:12.694Z,7.06
2017-05-14T07:56:42.478Z,7.52
2017-05-14T07:59:11.504Z,9.14
2017-05-14T08:01:41.309Z,8.20
2017-05-14T08:04:11.077Z,6.50
2017-05-14T08:06:40.097Z,7.92
2017-05-14T08:09:09.150Z,8.42
2017-05-14T08:11:38.206Z,9.02
2017-05-14T08:14:07.237Z,7.88
2017-05-14T08:16:36.257Z,7.38
2017-05-14T08:19:05.347Z,8.26
2017-05-14T08:21:34.380Z,7.66
2017-05-14T08:24:04.165Z,7.62
2017-05-14T08:26:33.389Z,8.60
2017-05-14T08:29:02.425Z,7.98
2017-05-14T08:31:31.472Z,9.86
2017-05-14T08:34:00.532Z,10.06
2017-05-14T08:36:29.563Z,9.26
2017-05-14T08:38:59.325Z,8.18
2017-05-14T08:41:28.389Z,7.86
2017-05-14T08:43:57.439Z,9.54
2017-05-14T08:46:26.503Z,8.38
2017-05-14T08:48:55.657Z,8.54
2017-05-14T08:51:24.692Z,8.78
2017-05-14T08:53:53.711Z,8.74
2017-05-14T08:56:22.851Z,8.08
2017-05-14T08:58:52.609Z,8.06
2017-05-14T09:01:21.745Z,7.62
2017-05-14T09:03:50.750Z,9.48
2017-05-14T09:06:19.818Z,8.84
2017-05-14T09:08:48.852Z,9.16
2017-05-14T09:11:17.905Z,9.90
2017-05-14T09:13:47.024Z,9.12
2017-05-14T09:16:16.092Z,8.16
2017-05-14T09:18:45.126Z,8.82
2017-05-14T09:21:14.178Z,8.56
2017-05-14T09:23:43.202Z,9.20
2017-05-14T09:26:12.245Z,9.60
2017-05-14T09:28:42.063Z,8.28
2017-05-14T09:31:11.123Z,8.02
2017-05-14T09:33:40.157Z,7.68
2017-05-14T09:36:09.281Z,7.72
2017-05-14T09:38:38.326Z,7.14
2017-05-14T09:41:07.350Z,5.82
2017-05-14T09:43:37.326Z,6.96
2017-05-14T09:46:06.556Z,6.54
2017-05-14T09:48:35.615Z,6.10
2017-05-14T09:51:04.721Z,7.40
2017-05-14T09:53:33.801Z,5.96
2017-05-14T09:56:02.828Z,6.02
2017-05-14T09:58:31.893Z,5.68
2017-05-14T10:01:00.936Z,6.14
2017-05-14T10:03:30.718Z,6.44
2017-05-14T10:05:59.766Z,7.06
2017-05-14T10:08:28.811Z,7.18
2017-05-14T10:10:57.853Z,7.06
2017-05-14T10:13:26.905Z,6.30
2017-05-14T10:15:55.942Z,5.70
2017-05-14T10:18:24.988Z,6.98
2017-05-14T10:20:54.029Z,6.76
2017-05-14T10:23:23.057Z,6.82
2017-05-14T10:25:52.100Z,10.06
2017-05-14T10:28:21.914Z,6.56
2017-05-14T10:30:51.723Z,6.30
2017-05-14T10:33:21.522Z,6.88
2017-05-14T10:35:50.574Z,5.56
2017-05-14T10:38:19.614Z,7.20
2017-05-14T10:40:48.675Z,6.74
2017-05-14T10:43:17.713Z,6.90
2017-05-14T10:45:47.512Z,5.58
2017-05-14T10:48:16.555Z,7.98
2017-05-14T10:50:45.601Z,5.90
2017-05-14T10:53:14.620Z,6.28
2017-05-14T10:55:43.678Z,5.88
2017-05-14T10:58:12.697Z,5.92
2017-05-14T11:00:42.506Z,6.52
2017-05-14T11:03:12.273Z,5.40
2017-05-14T11:05:41.350Z,5.76
2017-05-14T11:08:10.458Z,6.86
2017-05-14T11:10:39.457Z,6.46
2017-05-14T11:13:08.517Z,6.70
2017-05-14T11:15:37.569Z,6.30
2017-05-14T11:18:06.620Z,6.54
2017-05-14T11:20:35.678Z,6.84
2017-05-14T11:23:04.725Z,6.76
2017-05-14T11:25:33.773Z,6.96
2017-05-14T11:28:02.832Z,5.42
2017-05-14T11:30:31.863Z,6.94
2017-05-14T11:33:01.649Z,7.22
2017-05-14T11:35:30.698Z,8.92
2017-05-14T11:37:59.764Z,5.82
2017-05-14T11:40:28.787Z,6.88
2017-05-14T11:42:57.853Z,5.92
2017-05-14T11:45:26.882Z,5.30
2017-05-14T11:47:55.941Z,5.50
2017-05-14T11:50:24.977Z,5.10
2017-05-14T11:52:54.007Z,5.08
2017-05-14T11:55:23.789Z,6.32
2017-05-14T11:57:52.822Z,6.58
2017-05-14T12:00:22.605Z,5.84
2017-05-14T12:02:51.703Z,5.92
2017-05-14T12:05:20.701Z,8.90
2017-05-14T12:07:49.884Z,5.96
2017-05-14T12:10:18.983Z,4.68
2017-05-14T12:12:48.034Z,10.22
2017-05-14T12:15:17.125Z,8.10
2017-05-14T12:17:46.151Z,5.28
2017-05-14T12:20:15.191Z,5.20
2017-05-14T12:22:44.248Z,5.20
2017-05-14T12:25:13.286Z,5.12
2017-05-14T12:27:42.336Z,7.12
2017-05-14T12:30:11.375Z,5.88
2017-05-14T12:32:40.428Z,5.18
2017-05-14T12:35:09.458Z,9.28
2017-05-14T12:37:38.521Z,5.34
2017-05-14T12:40:07.554Z,5.50
2017-05-14T12:42:36.593Z,5.10
2017-05-14T12:45:05.620Z,4.64
2017-05-14T12:47:35.413Z,4.12
2017-05-14T12:50:04.531Z,7.96
2017-05-14T12:52:33.596Z,4.60
2017-05-14T12:55:02.640Z,5.02
2017-05-14T12:57:31.684Z,4.98
2017-05-14T13:00:00.726Z,5.08
2017-05-14T13:02:29.749Z,7.12
2017-05-14T13:04:58.802Z,5.06
2017-05-14T13:07:28.603Z,5.58
2017-05-14T13:09:57.634Z,4.82
2017-05-14T13:12:26.676Z,3.52
2017-05-14T13:14:55.738Z,3.66
2017-05-14T13:17:24.758Z,3.28
2017-05-14T13:19:53.825Z,6.74
2017-05-14T13:22:22.851Z,4.76
2017-05-14T13:24:51.894Z,3.50
2017-05-14T13:27:20.974Z,3.80
2017-05-14T13:29:49.993Z,3.66
2017-05-14T13:32:19.053Z,3.80
2017-05-14T13:34:48.092Z,3.48
2017-05-14T13:37:17.147Z,4.34
2017-05-14T13:39:46.163Z,7.86
2017-05-14T13:42:15.272Z,10.34
2017-05-14T13:44:44.307Z,4.54
2017-05-14T13:47:14.089Z,5.66
2017-05-14T13:49:43.145Z,4.34
2017-05-14T13:52:12.181Z,4.08
2017-05-14T13:54:41.330Z,4.08
2017-05-14T13:57:10.405Z,3.80
2017-05-14T13:59:40.177Z,2.96
2017-05-14T14:02:09.229Z,8.44
2017-05-14T14:04:39.005Z,4.26
2017-05-14T14:07:08.065Z,3.10
2017-05-14T14:09:37.143Z,3.00
2017-05-14T14:12:06.176Z,3.30
2017-05-14T14:14:35.251Z,2.50
2017-05-14T14:17:04.283Z,2.54
2017-05-14T14:19:34.099Z,5.56
2017-05-14T14:22:03.869Z,3.00
2017-05-14T14:24:32.945Z,3.28
2017-05-14T14:27:01.967Z,2.76
2017-05-14T14:29:32.170Z,3.84
2017-05-14T14:32:01.228Z,3.68
2017-05-14T14:34:31.027Z,2.96
2017-05-14T14:37:00.068Z,3.84
2017-05-14T14:39:29.101Z,3.30
2017-05-14T14:41:58.365Z,3.74
2017-05-14T14:44:27.386Z,3.34
2017-05-14T14:46:56.440Z,3.36
2017-05-14T14:49:26.328Z,3.40
2017-05-14T14:51:55.359Z,3.08
2017-05-14T14:54:24.486Z,5.10
2017-05-14T14:56:53.552Z,3.80
2017-05-14T14:59:23.398Z,9.20
2017-05-14T15:01:52.505Z,3.62
2017-05-14T15:04:22.365Z,3.26
2017-05-14T15:06:51.421Z,4.56
2017-05-14T15:09:21.207Z,10.76
2017-05-14T15:11:50.259Z,6.06
2017-05-14T15:14:19.325Z,4.36
2017-05-14T15:16:49.085Z,3.18
2017-05-14T15:19:18.135Z,3.52
2017-05-14T15:21:47.176Z,7.54
2017-05-14T15:24:16.213Z,5.48
2017-05-14T15:26:46.004Z,4.56
2017-05-14T15:29:15.094Z,3.56
2017-05-14T15:31:44.142Z,4.86
2017-05-14T15:34:13.174Z,5.10
2017-05-14T15:36:42.311Z,4.30
2017-05-14T15:39:12.105Z,11.50
2017-05-14T15:41:41.126Z,4.30
2017-05-14T15:44:10.169Z,7.92
2017-05-14T15:46:39.206Z,4.14
2017-05-14T15:49:08.276Z,4.80
2017-05-14T15:51:38.047Z,4.64
2017-05-14T15:54:07.093Z,4.66
2017-05-14T15:56:36.155Z,6.68
2017-05-14T15:59:05.190Z,4.82
2017-05-14T16:01:34.228Z,9.68
2017-05-14T16:04:03.270Z,8.78
2017-05-14T16:06:33.032Z,6.24
2017-05-14T16:09:02.089Z,6.56
2017-05-14T16:11:31.126Z,10.04
2017-05-14T16:14:00.333Z,5.24
2017-05-14T16:16:29.377Z,11.32
2017-05-14T16:18:58.411Z,12.96
2017-05-14T16:21:27.540Z,13.04
2017-05-14T16:23:56.654Z,18.20
2017-05-14T16:26:25.702Z,6.32
2017-05-14T16:28:54.819Z,2.88
2017-05-14T16:31:23.915Z,2.48
2017-05-14T16:33:53.424Z,1.80
2017-05-14T16:36:22.449Z,1.68
2017-05-14T16:38:51.529Z,1.72
2017-05-14T16:41:20.549Z,1.50
2017-05-14T16:43:49.704Z,2.22
2017-05-14T16:46:18.738Z,1.70
2017-05-14T16:48:47.807Z,1.78
2017-05-14T16:51:16.870Z,1.72
2017-05-14T16:53:46.830Z,1.92
2017-05-14T16:56:15.886Z,1.84
2017-05-14T16:58:44.921Z,3.10
2017-05-14T17:01:13.989Z,1.96
2017-05-14T17:03:43.796Z,1.92
2017-05-14T17:06:12.801Z,1.50
2017-05-14T17:08:42.002Z,1.54
2017-05-14T17:11:11.763Z,1.32
2017-05-14T17:13:40.810Z,1.76
2017-05-14T17:16:09.853Z,2.40
2017-05-14T17:18:38.976Z,1.88
2017-05-14T17:21:08.061Z,1.52
2017-05-14T17:23:37.109Z,1.30
2017-05-14T17:26:06.150Z,1.72
2017-05-14T17:28:35.324Z,3.86
2017-05-14T17:31:04.357Z,1.44
2017-05-14T17:33:34.158Z,1.88
2017-05-14T17:36:03.933Z,1.30
2017-05-14T17:38:33.012Z,1.92
2017-05-14T17:41:02.192Z,2.32
2017-05-14T17:43:31.368Z,3.22
2017-05-14T17:46:01.133Z,3.56
2017-05-14T17:48:30.271Z,1.86
2017-05-14T17:50:59.290Z,3.52
2017-05-14T17:53:28.361Z,2.14
2017-05-14T17:55:58.137Z,3.34
2017-05-14T17:58:27.257Z,2.88
2017-05-14T18:00:57.036Z,8.24
2017-05-14T18:03:26.113Z,19.32
2017-05-14T18:05:55.192Z,9.02
2017-05-14T18:08:25.010Z,4.44
2017-05-14T18:10:54.073Z,2.40
2017-05-14T18:13:23.987Z,2.82
2017-05-14T18:15:53.037Z,1.88
2017-05-14T18:18:22.081Z,3.78
2017-05-14T18:20:51.849Z,2.04
2017-05-14T18:23:20.926Z,2.42
2017-05-14T18:25:50.013Z,2.82
2017-05-14T18:28:19.110Z,1.60
2017-05-14T18:30:48.251Z,2.38
2017-05-14T18:33:17.363Z,2.10
2017-05-14T18:35:46.407Z,3.60
2017-05-14T18:38:15.479Z,2.80
2017-05-14T18:40:44.542Z,5.78
2017-05-14T18:43:13.572Z,4.52
2017-05-14T18:45:42.620Z,4.76
2017-05-14T18:48:11.677Z,2.84
2017-05-14T18:50:40.737Z,4.92
2017-05-14T18:53:09.762Z,5.38
2017-05-14T18:55:38.869Z,6.04
2017-05-14T18:58:08.853Z,6.78
2017-05-14T19:00:37.936Z,8.64
2017-05-14T19:03:07.816Z,10.32
2017-05-14T19:05:36.911Z,8.98
2017-05-14T19:08:07.301Z,9.46
2017-05-14T19:10:36.511Z,13.48
2017-05-14T19:13:05.618Z,17.02
2017-05-14T19:15:34.711Z,13.58
2017-05-14T19:18:03.886Z,13.64
2017-05-14T19:20:32.940Z,14.10
2017-05-14T19:23:02.729Z,12.34
2017-05-14T19:25:32.534Z,14.52
2017-05-14T19:28:01.622Z,13.92
2017-05-14T19:30:30.719Z,13.98
2017-05-14T19:32:59.844Z,12.90
2017-05-14T19:35:29.638Z,14.34
2017-05-14T19:37:58.734Z,15.32
2017-05-14T19:40:28.777Z,14.50
2017-05-14T19:42:57.897Z,16.44
2017-05-14T19:45:27.283Z,25.48
2017-05-14T19:48:02.809Z,16.00
2017-05-14T19:50:31.917Z,16.76
2017-05-14T19:53:01.265Z,20.68
2017-05-14T19:55:30.400Z,21.40
2017-05-14T19:57:59.563Z,14.76
2017-05-14T20:00:28.671Z,14.30
2017-05-14T20:02:57.753Z,16.54
2017-05-14T20:05:26.900Z,14.62
2017-05-14T20:07:56.049Z,14.62
2017-05-14T20:10:25.094Z,13.50
2017-05-14T20:12:55.567Z,14.18
2017-05-14T20:15:24.617Z,16.48
2017-05-14T20:17:54.972Z,17.78
2017-05-14T20:20:24.198Z,13.52
2017-05-14T20:22:53.327Z,13.84
2017-05-14T20:25:22.413Z,13.60
2017-05-14T20:27:51.547Z,16.60
2017-05-14T20:30:20.587Z,16.52
2017-05-14T20:32:50.431Z,12.52
2017-05-14T20:35:20.310Z,14.18
2017-05-14T20:37:49.487Z,14.18
2017-05-14T20:40:18.826Z,10.94
2017-05-14T20:42:48.078Z,10.62
2017-05-14T20:45:17.153Z,14.66
2017-05-14T20:47:46.318Z,14.84
2017-05-14T20:50:15.684Z,22.92
2017-05-14T20:52:44.778Z,13.76
2017-05-14T20:55:13.845Z,11.44
2017-05-14T20:57:42.953Z,15.36
2017-05-14T21:00:12.048Z,12.80
2017-05-14T21:02:41.115Z,12.46
2017-05-14T21:05:10.239Z,12.90
2017-05-14T21:07:39.322Z,13.72
2017-05-14T21:10:08.402Z,17.60
2017-05-14T21:12:37.472Z,11.90
2017-05-14T21:15:06.633Z,12.38
2017-05-14T21:17:35.798Z,11.56
2017-05-14T21:20:04.857Z,31.50
2017-05-14T21:22:34.054Z,12.90
2017-05-14T21:25:03.701Z,10.64
2017-05-14T21:27:32.754Z,12.04
2017-05-14T21:30:02.563Z,10.32
2017-05-14T21:32:32.357Z,10.64
2017-05-14T21:35:01.425Z,9.94
2017-05-14T21:37:30.614Z,9.30
2017-05-14T21:39:59.714Z,9.64
2017-05-14T21:42:28.799Z,8.72
2017-05-14T21:44:57.839Z,9.30
2017-05-14T21:47:26.912Z,8.08
2017-05-14T21:49:56.737Z,8.82
2017-05-14T21:52:25.790Z,9.12
2017-05-14T21:54:54.948Z,11.56
2017-05-14T21:57:23.965Z,8.48
2017-05-14T21:59:53.019Z,8.96
2017-05-14T22:02:22.131Z,9.54
2017-05-14T22:04:51.929Z,8.24
2017-05-14T22:07:20.973Z,8.58
2017-05-14T22:09:50.021Z,8.60
2017-05-14T22:12:19.960Z,8.72
2017-05-14T22:14:49.016Z,9.28
2017-05-14T22:17:18.102Z,8.74
2017-05-14T22:19:47.197Z,8.64
2017-05-14T22:22:16.257Z,9.14
2017-05-14T22:24:45.308Z,7.78
2017-05-14T22:27:14.419Z,9.80
2017-05-14T22:29:44.175Z,10.96
2017-05-14T22:32:13.242Z,10.02
2017-05-14T22:34:42.277Z,11.40
2017-05-14T22:37:11.354Z,10.68
2017-05-14T22:39:40.382Z,10.20
2017-05-14T22:42:09.447Z,10.96
2017-05-14T22:44:38.490Z,9.90
2017-05-14T22:47:08.338Z,9.52
2017-05-14T22:49:37.383Z,9.78
2017-05-14T22:52:06.443Z,10.66
2017-05-14T22:54:35.489Z,13.06
2017-05-14T22:57:04.559Z,9.32
2017-05-14T22:59:33.593Z,12.08
2017-05-14T23:02:02.650Z,10.82
2017-05-14T23:04:32.433Z,10.36
2017-05-14T23:07:01.490Z,14.98
2017-05-14T23:09:30.531Z,9.94
2017-05-14T23:11:59.704Z,12.58
2017-05-14T23:14:28.755Z,10.50
2017-05-14T23:16:58.596Z,12.02
2017-05-14T23:19:27.648Z,10.16
2017-05-14T23:21:56.687Z,11.04
2017-05-14T23:24:25.750Z,11.60
2017-05-14T23:26:54.822Z,12.56
2017-05-14T23:29:23.899Z,9.94
2017-05-14T23:31:52.978Z,11.00
2017-05-14T23:34:22.040Z,11.58
2017-05-14T23:36:51.151Z,11.84
2017-05-14T23:39:20.191Z,12.12
2017-05-14T23:41:49.233Z,11.52
2017-05-14T23:44:18.294Z,10.84
2017-05-14T23:46:48.087Z,12.52
2017-05-14T23:49:17.157Z,9.72
2017-05-14T23:51:46.189Z,9.10
2017-05-14T23:54:15.257Z,8.92
2017-05-14T23:56:44.288Z,9.60
2017-05-14T23:59:14.075Z,10.32
